Time;durP1;ratioP1;P1;durP2;ratioP2;P2;SDS_P1;SDS_P2;PMS_P1;PMS_P2;Temp;Humidity;BMP_temperature;BMP_pressure;BME280_temperature;BME280_humidity;BME280_pressure;Samples;Min_cycle;Max_cycle;Signal;HPM_P1;HPM_P2
2024/04/13 00:01:42;;;;;;;6.63;3.67;;;17.20;1.00;;;;;;5470550;26;20002;-77
2024/04/13 00:04:08;;;;;;;3.63;3.33;;;17.30;1.00;;;;;;5471574;26;19991;-77
2024/04/13 00:06:34;;;;;;;6.15;3.72;;;17.20;1.00;;;;;;5471410;26;20537;-77
2024/04/13 00:09:00;;;;;;;6.20;3.17;;;17.20;1.00;;;;;;5470832;26;20067;-77
2024/04/13 00:11:25;;;;;;;9.15;3.10;;;17.20;1.00;;;;;;5465613;26;20437;-77
2024/04/13 00:13:51;;;;;;;5.53;3.28;;;17.10;1.00;;;;;;5470456;26;20332;-77
2024/04/13 00:16:17;;;;;;;6.47;3.28;;;17.10;1.00;;;;;;5467109;26;20045;-77
2024/04/13 00:18:43;;;;;;;7.22;3.20;;;17.10;1.00;;;;;;5473332;26;19994;-77
2024/04/13 00:21:09;;;;;;;6.70;3.35;;;17.10;1.00;;;;;;5474969;26;20008;-77
2024/04/13 00:23:35;;;;;;;5.68;3.25;;;17.00;1.00;;;;;;5468106;26;20553;-77
2024/04/13 00:26:01;;;;;;;6.07;2.90;;;17.10;1.00;;;;;;5474055;26;20066;-77
2024/04/13 00:28:27;;;;;;;3.30;3.10;;;17.00;1.00;;;;;;5467201;26;19998;-77
2024/04/13 00:30:54;;;;;;;4.72;2.60;;;17.00;1.00;;;;;;5467469;26;20001;-77
2024/04/13 00:33:19;;;;;;;5.18;3.03;;;17.00;1.00;;;;;;5471669;26;20433;-77
2024/04/13 00:35:45;;;;;;;6.22;2.97;;;17.00;1.00;;;;;;5468091;26;20044;-77
2024/04/13 00:38:14;;;;;;;5.00;2.88;;;17.00;1.00;;;;;;5472998;26;20455;-77
2024/04/13 00:40:42;;;;;;;5.40;3.42;;;17.00;1.00;;;;;;5468171;26;20441;-77
2024/04/13 00:43:09;;;;;;;4.97;3.28;;;17.00;1.00;;;;;;5471245;26;19998;-77
2024/04/13 00:45:44;;;;;;;3.35;2.95;;;17.00;1.00;;;;;;5467778;26;20001;-77
2024/04/13 00:48:32;;;;;;;5.25;3.00;;;17.00;1.00;;;;;;5454806;26;20024;-77
2024/04/13 00:51:00;;;;;;;6.22;3.05;;;17.00;1.00;;;;;;5468231;26;20001;-77
2024/04/13 00:53:29;;;;;;;6.88;2.88;;;17.00;1.00;;;;;;5472825;26;20046;-77
2024/04/13 00:56:00;;;;;;;8.10;3.65;;;17.00;1.00;;;;;;5467687;26;20044;-77
2024/04/13 00:58:30;;;;;;;6.45;2.80;;;17.00;1.00;;;;;;5460260;26;20007;-77
2024/04/13 01:00:58;;;;;;;3.47;2.67;;;17.00;1.00;;;;;;5460693;26;20001;-77
2024/04/13 01:03:24;;;;;;;3.95;3.08;;;16.90;1.00;;;;;;5473709;26;19997;-77
2024/04/13 01:05:51;;;;;;;7.32;2.80;;;16.90;1.00;;;;;;5464729;26;19997;-77
2024/04/13 01:08:18;;;;;;;5.38;3.38;;;16.90;1.00;;;;;;5467341;26;20375;-77
2024/04/13 01:10:45;;;;;;;4.35;3.03;;;16.90;1.00;;;;;;5457490;26;20356;-77
2024/04/13 01:13:11;;;;;;;4.88;3.25;;;16.90;1.00;;;;;;5460126;26;19998;-76
2024/04/13 01:15:38;;;;;;;5.32;2.75;;;16.90;1.00;;;;;;5466785;26;20459;-77
2024/04/13 01:18:10;;;;;;;3.33;2.90;;;16.90;99.90;;;;;;5465997;26;19998;-77
2024/04/13 01:20:37;;;;;;;5.25;2.70;;;16.90;1.00;;;;;;5452241;26;20366;-77
2024/04/13 01:23:05;;;;;;;2.80;2.60;;;16.90;99.90;;;;;;5472854;26;20010;-77
2024/04/13 01:25:32;;;;;;;4.22;2.90;;;16.90;99.90;;;;;;5461408;26;20009;-77
2024/04/13 01:27:58;;;;;;;4.50;3.15;;;16.90;99.90;;;;;;5466584;26;20004;-77
2024/04/13 01:30:24;;;;;;;4.38;2.85;;;16.90;99.90;;;;;;5466897;26;19995;-77
2024/04/13 01:32:50;;;;;;;4.70;3.20;;;16.80;99.90;;;;;;5473101;26;20002;-77
2024/04/13 01:35:19;;;;;;;3.50;2.88;;;16.90;1.00;;;;;;5472669;26;19998;-77
2024/04/13 01:37:45;;;;;;;6.07;3.03;;;16.80;1.00;;;;;;5464800;26;20024;-76
2024/04/13 01:40:12;;;;;;;7.35;3.00;;;16.80;1.00;;;;;;5472603;26;20009;-77
2024/04/13 01:42:42;;;;;;;4.90;3.15;;;16.80;99.90;;;;;;5465681;26;19990;-77
2024/04/13 01:45:10;;;;;;;3.58;2.90;;;16.80;1.00;;;;;;5466266;26;20064;-77
2024/04/13 01:47:36;;;;;;;7.85;3.13;;;16.80;1.00;;;;;;5458585;26;19991;-77
2024/04/13 01:50:03;;;;;;;3.17;2.88;;;16.70;1.00;;;;;;5466465;26;20412;-77
2024/04/13 01:52:29;;;;;;;3.63;2.83;;;16.70;1.00;;;;;;5472304;26;19990;-77
2024/04/13 01:54:59;;;;;;;4.18;3.75;;;16.70;1.00;;;;;;5466746;26;20376;-77
2024/04/13 01:57:24;;;;;;;4.88;3.45;;;16.70;1.00;;;;;;5472752;26;19990;-77
2024/04/13 01:59:50;;;;;;;5.90;2.97;;;16.70;1.00;;;;;;5466437;26;19999;-77
2024/04/13 02:02:16;;;;;;;7.50;3.03;;;16.60;1.00;;;;;;5472225;26;19994;-77
2024/04/13 02:04:42;;;;;;;3.97;3.35;;;16.60;1.00;;;;;;5465551;26;20533;-77
2024/04/13 02:07:08;;;;;;;4.07;3.00;;;16.60;1.00;;;;;;5470938;26;19995;-77
2024/04/13 02:09:34;;;;;;;4.05;2.88;;;16.60;1.00;;;;;;5468019;26;20004;-77
2024/04/13 02:12:00;;;;;;;10.13;3.50;;;16.60;1.00;;;;;;5466944;26;19995;-77
2024/04/13 02:14:26;;;;;;;5.60;3.53;;;16.70;1.00;;;;;;5455587;26;20003;-76
2024/04/13 02:16:53;;;;;;;4.00;3.60;;;16.70;1.00;;;;;;5438880;26;20356;-77
2024/04/13 02:19:19;;;;;;;6.85;3.90;;;16.70;1.00;;;;;;5437621;26;19999;-77
2024/04/13 02:21:45;;;;;;;3.97;3.45;;;16.60;1.00;;;;;;5441933;26;20329;-77
2024/04/13 02:24:10;;;;;;;3.80;3.50;;;16.60;1.00;;;;;;5448103;26;20048;-77
2024/04/13 02:26:39;;;;;;;5.55;3.50;;;16.60;1.00;;;;;;5463797;26;19995;-77
2024/04/13 02:29:05;;;;;;;7.75;3.95;;;16.60;1.00;;;;;;5466789;26;19990;-76
2024/04/13 02:31:31;;;;;;;4.10;3.70;;;16.60;1.00;;;;;;5469762;26;20034;-76
2024/04/13 02:33:56;;;;;;;6.22;3.50;;;16.70;1.00;;;;;;5460881;26;20071;-76
2024/04/13 02:36:22;;;;;;;4.57;4.18;;;16.70;1.00;;;;;;5461848;26;20071;-76
2024/04/13 02:38:48;;;;;;;4.60;3.85;;;16.60;1.00;;;;;;5462753;26;20010;-76
2024/04/13 02:41:13;;;;;;;6.75;3.40;;;16.60;1.00;;;;;;5469073;26;20419;-76
2024/04/13 02:43:39;;;;;;;5.25;3.80;;;16.60;1.00;;;;;;5454925;26;20465;-76
2024/04/13 02:46:08;;;;;;;6.45;3.28;;;16.60;1.00;;;;;;5468254;26;20440;-76
2024/04/13 02:48:40;;;;;;;5.20;3.75;;;16.60;1.00;;;;;;5469369;26;20484;-76
2024/04/13 02:51:06;;;;;;;4.97;3.72;;;16.60;1.00;;;;;;5456528;26;20131;-76
2024/04/13 02:53:33;;;;;;;5.38;3.92;;;16.60;1.00;;;;;;5469033;26;20009;-76
2024/04/13 02:55:59;;;;;;;5.53;3.45;;;16.50;1.00;;;;;;5464294;26;19998;-76
2024/04/13 02:58:25;;;;;;;4.95;3.58;;;16.50;1.00;;;;;;5465149;26;20333;-76
2024/04/13 03:00:55;;;;;;;4.00;3.50;;;16.50;1.00;;;;;;5462927;26;20023;-76
2024/04/13 03:03:21;;;;;;;5.22;3.72;;;16.50;1.00;;;;;;5458537;26;19993;-76
2024/04/13 03:06:23;;;;;;;6.15;3.90;;;16.50;1.00;;;;;;5456788;26;20302;-76
2024/04/13 03:08:50;;;;;;;4.13;3.83;;;16.50;1.00;;;;;;5459246;26;20002;-76
2024/04/13 03:11:17;;;;;;;4.15;3.78;;;16.50;1.00;;;;;;5468999;26;20005;-76
2024/04/13 03:13:44;;;;;;;4.45;3.78;;;16.50;1.00;;;;;;5465526;26;20486;-76
2024/04/13 03:16:10;;;;;;;4.05;3.45;;;16.50;1.00;;;;;;5471424;26;20306;-76
2024/04/13 03:18:44;;;;;;;6.60;3.83;;;16.40;1.00;;;;;;5471801;26;20336;-76
2024/04/13 03:21:10;;;;;;;6.45;4.40;;;16.40;1.00;;;;;;5468054;26;20022;-76
2024/04/13 03:23:37;;;;;;;4.80;3.85;;;16.40;1.00;;;;;;5465716;26;20460;-76
2024/04/13 03:26:03;;;;;;;6.30;4.40;;;16.40;1.00;;;;;;5463479;26;20003;-76
2024/04/13 03:28:30;;;;;;;5.47;3.97;;;16.40;1.00;;;;;;5470335;26;19990;-76
2024/04/13 03:30:57;;;;;;;3.90;3.60;;;16.30;1.00;;;;;;5465185;26;19999;-76
2024/04/13 03:33:26;;;;;;;7.18;4.43;;;16.30;1.00;;;;;;5471084;26;19991;-76
2024/04/13 03:35:51;;;;;;;4.25;3.95;;;16.30;1.00;;;;;;5463783;26;20041;-76
2024/04/13 03:38:20;;;;;;;4.97;3.75;;;16.30;1.00;;;;;;5468693;26;20291;-76
2024/04/13 03:40:46;;;;;;;4.03;3.63;;;16.30;1.00;;;;;;5465467;26;19991;-76
2024/04/13 03:43:14;;;;;;;5.03;3.53;;;16.30;1.00;;;;;;5470493;26;20321;-76
2024/04/13 03:45:40;;;;;;;5.93;4.18;;;16.30;1.00;;;;;;5465902;26;20001;-76
2024/04/13 03:48:06;;;;;;;4.10;3.70;;;16.30;1.00;;;;;;5474369;26;20009;-76
2024/04/13 03:50:38;;;;;;;5.15;3.90;;;16.30;1.00;;;;;;5474778;26;20002;-76
2024/04/13 03:53:04;;;;;;;8.27;4.53;;;16.30;1.00;;;;;;5467782;26;20003;-76
2024/04/13 03:55:29;;;;;;;4.40;3.97;;;16.30;1.00;;;;;;5468268;26;20063;-76
2024/04/13 03:57:55;;;;;;;4.30;4.00;;;16.30;1.00;;;;;;5472497;26;20006;-76
2024/04/13 04:00:21;;;;;;;4.93;3.97;;;16.30;1.00;;;;;;5468232;26;20004;-76
2024/04/13 04:02:46;;;;;;;7.55;4.05;;;16.30;1.00;;;;;;5473817;26;20347;-76
2024/04/13 04:05:12;;;;;;;4.88;4.38;;;16.30;1.00;;;;;;5468747;26;20402;-76
2024/04/13 04:07:38;;;;;;;4.18;3.78;;;16.20;1.00;;;;;;5472998;26;19999;-76
2024/04/13 04:10:05;;;;;;;6.95;4.78;;;16.10;1.00;;;;;;5468873;26;20709;-76
2024/04/13 04:12:30;;;;;;;6.10;4.80;;;16.10;1.00;;;;;;5467941;26;20444;-76
2024/04/13 04:14:56;;;;;;;7.20;4.32;;;16.10;1.00;;;;;;5472803;26;20009;-76
2024/04/13 04:17:22;;;;;;;4.93;4.43;;;16.10;1.00;;;;;;5471271;26;19999;-76
2024/04/13 04:19:48;;;;;;;6.10;4.70;;;16.10;1.00;;;;;;5470734;26;20000;-76
2024/04/13 04:22:13;;;;;;;6.88;4.13;;;16.10;2.20;;;;;;5470671;26;20062;-76
2024/04/13 04:24:39;;;;;;;7.53;4.63;;;16.00;7.80;;;;;;5471682;26;20458;-76
2024/04/13 04:27:05;;;;;;;4.55;3.70;;;16.10;13.00;;;;;;5469467;26;20038;-76
2024/04/13 04:29:34;;;;;;;7.38;4.20;;;16.00;11.40;;;;;;5472468;26;20053;-76
2024/04/13 04:32:01;;;;;;;6.85;4.78;;;16.00;7.80;;;;;;5463773;26;19995;-76
2024/04/13 04:34:27;;;;;;;4.70;4.05;;;16.00;8.10;;;;;;5472238;26;20044;-76
2024/04/13 04:36:56;;;;;;;5.85;3.75;;;16.10;7.90;;;;;;5466923;26;19995;-76
2024/04/13 04:39:21;;;;;;;10.55;4.60;;;16.10;10.20;;;;;;5470279;26;19990;-76
2024/04/13 04:41:47;;;;;;;6.32;4.30;;;16.10;11.00;;;;;;5468812;26;20075;-76
2024/04/13 04:44:13;;;;;;;6.13;4.57;;;16.10;11.50;;;;;;5473133;26;20001;-76
2024/04/13 04:46:38;;;;;;;5.65;4.22;;;16.00;14.60;;;;;;5465103;26;20259;-76
2024/04/13 04:49:05;;;;;;;11.35;5.00;;;16.00;13.30;;;;;;5467170;26;19998;-76
2024/04/13 04:51:31;;;;;;;8.98;4.45;;;16.10;15.10;;;;;;5474361;26;19994;-76
2024/04/13 04:53:58;;;;;;;4.82;4.13;;;16.00;17.30;;;;;;5459893;26;20067;-76
2024/04/13 04:56:26;;;;;;;6.13;4.40;;;16.00;16.20;;;;;;5471865;26;20476;-76
2024/04/13 04:58:51;;;;;;;6.22;4.30;;;16.00;15.20;;;;;;5466183;26;20079;-76
2024/04/13 05:01:17;;;;;;;9.45;4.50;;;16.10;15.90;;;;;;5471134;26;19990;-76
2024/04/13 05:03:43;;;;;;;7.35;4.70;;;16.00;18.70;;;;;;5468143;26;20075;-76
2024/04/13 05:06:09;;;;;;;6.65;4.20;;;16.10;17.70;;;;;;5469274;26;20472;-76
2024/04/13 05:08:38;;;;;;;8.13;4.72;;;16.10;19.50;;;;;;5466679;26;19999;-76
2024/04/13 05:11:04;;;;;;;4.47;4.00;;;16.00;24.10;;;;;;5472489;26;19994;-76
2024/04/13 05:13:30;;;;;;;7.47;4.20;;;16.10;28.40;;;;;;5468455;26;20345;-76
2024/04/13 05:15:58;;;;;;;6.93;4.20;;;16.10;21.70;;;;;;5471179;26;19995;-76
2024/04/13 05:18:24;;;;;;;7.35;4.22;;;16.10;17.70;;;;;;5466033;26;20035;-76
2024/04/13 05:20:50;;;;;;;10.52;4.65;;;16.20;21.30;;;;;;5459615;26;19998;-76
2024/04/13 05:23:16;;;;;;;8.70;4.30;;;16.20;22.60;;;;;;5479624;26;20001;-76
2024/04/13 05:25:42;;;;;;;5.60;4.28;;;16.20;24.20;;;;;;5470357;26;20430;-76
2024/04/13 05:28:07;;;;;;;8.05;4.45;;;16.30;20.50;;;;;;5470042;26;20008;-76
2024/04/13 05:30:35;;;;;;;11.50;5.07;;;16.30;23.40;;;;;;5469612;26;20033;-76
2024/04/13 05:33:03;;;;;;;6.90;4.63;;;16.30;24.90;;;;;;5470907;26;19998;-76
2024/04/13 05:35:29;;;;;;;5.22;4.72;;;16.30;24.30;;;;;;5469792;26;20072;-76
2024/04/13 05:37:54;;;;;;;6.53;4.75;;;16.30;23.80;;;;;;5471129;26;20002;-76
2024/04/13 05:40:24;;;;;;;6.20;4.70;;;16.40;24.60;;;;;;5468776;26;20070;-76
2024/04/13 05:42:51;;;;;;;5.43;4.75;;;16.40;24.70;;;;;;5470504;26;19990;-76
2024/04/13 05:45:17;;;;;;;8.27;4.57;;;16.40;28.00;;;;;;5462463;26;20404;-76
2024/04/13 05:47:43;;;;;;;4.50;4.07;;;16.40;29.70;;;;;;5468334;26;20001;-76
2024/04/13 05:50:09;;;;;;;7.18;4.68;;;16.50;36.40;;;;;;5471348;26;20026;-76
2024/04/13 05:52:35;;;;;;;9.25;4.68;;;16.50;40.50;;;;;;5467854;26;20005;-77
2024/04/13 05:55:01;;;;;;;13.13;6.25;;;16.50;44.80;;;;;;5472457;26;19990;-77
2024/04/13 05:57:30;;;;;;;9.20;5.63;;;16.50;44.80;;;;;;5465052;26;20456;-77
2024/04/13 05:59:57;;;;;;;5.68;5.15;;;16.60;45.90;;;;;;5472166;26;20416;-77
2024/04/13 06:02:26;;;;;;;5.75;5.13;;;16.60;40.90;;;;;;5466630;26;19994;-77
2024/04/13 06:04:53;;;;;;;5.65;4.72;;;16.70;45.10;;;;;;5471957;26;19990;-77
2024/04/13 06:07:19;;;;;;;5.80;5.00;;;16.70;45.20;;;;;;5467358;26;19998;-77
2024/04/13 06:09:46;;;;;;;7.13;4.88;;;16.70;51.50;;;;;;5468367;26;20446;-77
2024/04/13 06:12:12;;;;;;;7.70;4.95;;;16.80;52.10;;;;;;5466768;26;20005;-76
2024/04/13 06:14:39;;;;;;;7.03;5.03;;;16.80;52.80;;;;;;5472714;26;20022;-76
2024/04/13 06:17:05;;;;;;;6.82;4.82;;;16.90;49.80;;;;;;5466515;26;19995;-76
2024/04/13 06:19:31;;;;;;;7.85;4.88;;;16.90;48.10;;;;;;5458855;26;19999;-77
2024/04/13 06:21:57;;;;;;;5.55;5.05;;;17.00;49.20;;;;;;5472561;26;19986;-77
2024/04/13 06:24:25;;;;;;;15.85;5.78;;;17.10;45.60;;;;;;5466454;26;20007;-77
2024/04/13 06:26:51;;;;;;;6.65;5.18;;;17.20;46.70;;;;;;5472125;26;19994;-77
2024/04/13 06:29:17;;;;;;;5.85;4.88;;;17.30;54.80;;;;;;5464551;26;19995;-77
2024/04/13 06:31:42;;;;;;;9.95;5.93;;;17.30;53.20;;;;;;5471259;26;20459;-77
2024/04/13 06:34:08;;;;;;;12.18;4.93;;;17.40;51.60;;;;;;5459241;26;20368;-77
2024/04/13 06:36:34;;;;;;;11.50;5.82;;;17.50;52.30;;;;;;5456529;26;20003;-77
2024/04/13 06:38:59;;;;;;;9.80;4.63;;;17.50;55.50;;;;;;5466684;26;20379;-77
2024/04/13 06:41:25;;;;;;;6.28;5.45;;;17.60;57.20;;;;;;5437041;26;19999;-77
2024/04/13 06:43:51;;;;;;;11.90;5.32;;;17.60;53.80;;;;;;5456913;26;20011;-77
2024/04/13 06:46:19;;;;;;;9.98;5.25;;;17.70;55.80;;;;;;5448898;26;19995;-77
2024/04/13 06:48:44;;;;;;;9.18;5.22;;;17.70;59.60;;;;;;5462606;26;20011;-77
2024/04/13 06:51:11;;;;;;;7.10;5.07;;;17.70;58.80;;;;;;5462541;26;20383;-77
2024/04/13 06:53:37;;;;;;;13.55;6.22;;;17.80;71.20;;;;;;5469278;26;20036;-77
2024/04/13 06:56:03;;;;;;;9.98;5.88;;;17.90;63.40;;;;;;5455080;26;20003;-77
2024/04/13 06:58:28;;;;;;;8.80;4.80;;;17.90;63.80;;;;;;5458905;26;20011;-77
2024/04/13 07:00:55;;;;;;;7.03;5.03;;;17.90;63.40;;;;;;5459250;26;20014;-77
2024/04/13 07:03:24;;;;;;;6.70;5.57;;;18.00;61.30;;;;;;5460225;26;19998;-76
2024/04/13 07:06:00;;;;;;;9.38;6.20;;;18.10;57.90;;;;;;5469248;26;20009;-76
2024/04/13 07:08:27;;;;;;;9.40;6.15;;;18.10;69.20;;;;;;5451472;26;20031;-77
2024/04/13 07:10:55;;;;;;;7.93;5.65;;;18.10;73.20;;;;;;5449730;26;20002;-76
2024/04/13 07:13:21;;;;;;;7.70;6.00;;;18.30;80.30;;;;;;5452005;26;20079;-76
2024/04/13 07:15:48;;;;;;;7.32;5.88;;;18.20;88.80;;;;;;5462379;26;19999;-76
2024/04/13 07:18:15;;;;;;;11.05;6.28;;;18.30;89.00;;;;;;5446766;26;19998;-76
2024/04/13 07:20:44;;;;;;;15.82;7.03;;;18.20;89.80;;;;;;5451262;26;20006;-76
2024/04/13 07:23:10;;;;;;;13.32;7.03;;;18.30;73.10;;;;;;5451458;26;19995;-77
2024/04/13 07:25:35;;;;;;;11.75;7.70;;;18.40;77.00;;;;;;5449506;26;20356;-77
2024/04/13 07:28:01;;;;;;;8.32;6.25;;;18.40;48.50;;;;;;5453358;26;20011;-78
2024/04/13 07:30:27;;;;;;;11.25;6.82;;;18.40;49.70;;;;;;5445153;26;20014;-77
2024/04/13 07:32:53;;;;;;;10.00;7.40;;;18.40;70.40;;;;;;5465457;26;20002;-77
2024/04/13 07:35:19;;;;;;;19.25;8.27;;;18.40;60.50;;;;;;5465616;26;19998;-76
2024/04/13 07:37:45;;;;;;;18.73;9.63;;;18.40;85.50;;;;;;5462358;26;20002;-77
2024/04/13 07:40:10;;;;;;;14.55;11.05;;;18.50;80.20;;;;;;5471211;26;19994;-77
2024/04/13 07:42:36;;;;;;;14.52;11.43;;;18.60;54.20;;;;;;5461544;26;20492;-77
2024/04/13 07:45:02;;;;;;;15.30;11.18;;;18.70;52.30;;;;;;5464875;26;20003;-76
2024/04/13 07:47:28;;;;;;;19.60;11.98;;;18.80;47.70;;;;;;5462381;26;20363;-77
2024/04/13 07:49:53;;;;;;;18.60;11.18;;;18.80;49.60;;;;;;5468122;26;20004;-76
2024/04/13 07:52:19;;;;;;;15.95;11.52;;;18.90;55.30;;;;;;5463071;26;19999;-77
2024/04/13 07:54:45;;;;;;;16.73;11.63;;;18.90;72.00;;;;;;5468501;26;20359;-77
2024/04/13 07:57:12;;;;;;;18.02;13.63;;;19.00;78.50;;;;;;5471868;26;20003;-78
2024/04/13 07:59:37;;;;;;;19.52;13.77;;;19.10;58.70;;;;;;5466540;26;20009;-77
2024/04/13 08:02:03;;;;;;;27.00;13.38;;;19.10;56.70;;;;;;5469834;26;19998;-78
2024/04/13 08:04:29;;;;;;;25.20;14.15;;;19.10;75.40;;;;;;5469261;26;19994;-78
2024/04/13 08:06:55;;;;;;;18.33;13.65;;;19.20;62.50;;;;;;5470973;26;19999;-78
2024/04/13 08:09:20;;;;;;;18.27;13.00;;;19.20;63.40;;;;;;5474488;26;20440;-78
2024/04/13 08:11:46;;;;;;;22.73;14.02;;;19.30;60.90;;;;;;5470265;26;20327;-78
2024/04/13 08:14:12;;;;;;;18.80;14.77;;;19.40;78.50;;;;;;5467791;26;19990;-77
2024/04/13 08:16:37;;;;;;;21.13;15.43;;;19.40;75.90;;;;;;5465188;26;20005;-78
2024/04/13 08:19:03;;;;;;;22.17;16.23;;;19.50;90.30;;;;;;5472987;26;20382;-78
2024/04/13 08:21:32;;;;;;;30.15;18.42;;;19.50;94.20;;;;;;5474063;26;20017;-78
2024/04/13 08:23:58;;;;;;;29.30;17.48;;;19.60;71.00;;;;;;5475047;26;20405;-78
2024/04/13 08:26:24;;;;;;;25.13;17.83;;;19.60;56.50;;;;;;5465468;26;19995;-78
2024/04/13 08:28:49;;;;;;;23.55;17.83;;;19.60;54.10;;;;;;5474452;26;20070;-78
2024/04/13 08:31:15;;;;;;;26.25;17.80;;;19.60;76.10;;;;;;5467433;26;19991;-78
2024/04/13 08:33:43;;;;;;;22.05;17.33;;;19.70;80.60;;;;;;5472106;26;19998;-77
2024/04/13 08:36:08;;;;;;;23.35;17.42;;;19.80;58.30;;;;;;5466109;26;20486;-78
2024/04/13 08:38:35;;;;;;;32.50;21.55;;;19.80;50.00;;;;;;5464612;26;20075;-78
2024/04/13 08:41:11;;;;;;;37.70;23.45;;;19.80;51.60;;;;;;5467435;26;20003;-78
2024/04/13 08:43:37;;;;;;;35.03;23.17;;;19.80;49.90;;;;;;5460863;26;19994;-78
2024/04/13 08:46:07;;;;;;;35.38;23.77;;;19.90;32.00;;;;;;5466891;26;20448;-78
2024/04/13 08:48:36;;;;;;;33.92;22.48;;;19.90;34.20;;;;;;5489324;26;20006;-78
2024/04/13 08:51:03;;;;;;;36.05;21.17;;;19.90;49.60;;;;;;5466017;26;20337;-78
2024/04/13 08:53:31;;;;;;;26.25;19.70;;;20.00;45.90;;;;;;5473475;26;19990;-78
2024/04/13 08:56:00;;;;;;;24.52;19.42;;;20.10;48.20;;;;;;5468189;26;19995;-78
2024/04/13 08:58:28;;;;;;;31.55;19.27;;;20.10;63.30;;;;;;5463412;26;20006;-78
2024/04/13 09:01:01;;;;;;;28.27;19.15;;;20.30;49.30;;;;;;5468435;26;20119;-78
2024/04/13 09:03:28;;;;;;;32.88;20.20;;;20.30;34.80;;;;;;5466481;26;20001;-78
2024/04/13 09:05:54;;;;;;;26.73;17.35;;;20.30;32.10;;;;;;5471504;26;20090;-78
2024/04/13 09:08:23;;;;;;;23.67;16.23;;;20.30;46.00;;;;;;5469182;26;20006;-78
2024/04/13 09:10:51;;;;;;;26.90;16.08;;;20.40;31.30;;;;;;5469033;26;20001;-77
2024/04/13 09:13:17;;;;;;;18.55;14.98;;;20.40;38.00;;;;;;5469538;26;19994;-78
2024/04/13 09:15:44;;;;;;;24.85;15.82;;;20.40;1.30;;;;;;5471222;26;20384;-78
2024/04/13 09:18:11;;;;;;;19.08;15.40;;;20.40;1.00;;;;;;5461615;26;20010;-78
2024/04/13 09:20:38;;;;;;;18.70;14.48;;;20.40;1.00;;;;;;5458780;26;20499;-78
2024/04/13 09:23:05;;;;;;;26.55;14.32;;;20.40;1.80;;;;;;5472034;26;19994;-78
2024/04/13 09:25:31;;;;;;;20.10;13.93;;;20.40;1.90;;;;;;5466230;26;20448;-77
2024/04/13 09:28:04;;;;;;;19.83;15.20;;;20.50;1.00;;;;;;5472529;26;20069;-77
2024/04/13 09:30:33;;;;;;;21.85;13.80;;;20.50;16.20;;;;;;5466903;26;19991;-78
2024/04/13 09:33:03;;;;;;;25.48;14.55;;;20.60;1.00;;;;;;5466825;26;19994;-78
2024/04/13 09:35:29;;;;;;;22.42;14.35;;;20.70;1.00;;;;;;5470860;26;20003;-78
2024/04/13 09:37:59;;;;;;;24.75;15.88;;;20.60;1.00;;;;;;5468189;26;20317;-78
2024/04/13 09:40:26;;;;;;;23.25;15.35;;;20.60;1.00;;;;;;5470489;26;19999;-78
2024/04/13 09:42:51;;;;;;;19.05;13.77;;;20.70;1.00;;;;;;5466052;26;19987;-77
2024/04/13 09:45:18;;;;;;;16.10;13.57;;;20.80;1.00;;;;;;5470079;26;20009;-78
2024/04/13 09:47:48;;;;;;;22.73;13.77;;;20.90;1.00;;;;;;5467597;26;19999;-78
2024/04/13 09:50:14;;;;;;;21.35;12.93;;;20.90;1.00;;;;;;5469483;26;20036;-77
2024/04/13 09:52:41;;;;;;;15.32;13.25;;;21.00;1.00;;;;;;5470014;26;20031;-78
2024/04/13 09:55:07;;;;;;;21.83;13.52;;;21.10;1.00;;;;;;5469925;26;20401;-78
2024/04/13 09:57:33;;;;;;;17.23;12.40;;;21.10;1.00;;;;;;5467180;26;19999;-77
2024/04/13 10:00:00;;;;;;;20.90;12.43;;;21.20;1.00;;;;;;5470476;26;20001;-78
2024/04/13 10:02:26;;;;;;;15.48;11.73;;;21.40;99.90;;;;;;5468434;26;19999;-78
2024/04/13 10:04:52;;;;;;;17.05;10.82;;;21.30;1.00;;;;;;5470978;26;20009;-78
2024/04/13 10:07:19;;;;;;;16.23;11.65;;;21.40;1.00;;;;;;5467906;26;20369;-77
2024/04/13 10:09:50;;;;;;;12.50;9.02;;;21.50;1.00;;;;;;5465775;26;20002;-78
2024/04/13 10:12:19;;;;;;;;;;;21.80;99.90;;;;;;5451923;26;20021;-77
2024/04/13 10:14:47;;;;;;;12.63;8.98;;;21.70;99.90;;;;;;5442371;26;19932;-78
2024/04/13 10:17:14;;;;;;;12.60;8.32;;;21.70;99.90;;;;;;5446898;26;20002;-77
2024/04/13 10:19:44;;;;;;;16.70;9.15;;;21.70;99.90;;;;;;5448645;26;20027;-78
2024/04/13 10:22:11;;;;;;;8.05;6.95;;;21.70;99.90;;;;;;5458395;26;19995;-78
2024/04/13 10:24:44;;;;;;;9.85;8.80;;;21.70;99.90;;;;;;5459344;26;20014;-78
2024/04/13 10:27:11;;;;;;;12.20;8.25;;;22.00;99.90;;;;;;5455314;26;20010;-77
2024/04/13 10:29:40;;;;;;;16.25;8.35;;;22.10;99.90;;;;;;5452702;26;19994;-78
2024/04/13 10:32:24;;;;;;;9.50;7.95;;;22.30;99.90;;;;;;5457533;26;20003;-78
2024/04/13 10:34:51;;;;;;;10.98;7.75;;;22.40;99.90;;;;;;5449941;26;20249;-78
2024/04/13 10:37:25;;;;;;;8.25;6.90;;;22.40;99.90;;;;;;5466952;26;20006;-78
2024/04/13 10:39:57;;;;;;;10.90;6.53;;;22.60;99.90;;;;;;5476677;26;20012;-78
2024/04/13 10:43:02;;;;;;;10.07;6.82;;;22.60;99.90;;;;;;5460170;26;20009;-77
2024/04/13 10:45:30;;;;;;;11.10;6.90;;;22.60;1.00;;;;;;5447521;26;20410;-78
2024/04/13 10:47:57;;;;;;;21.80;8.98;;;22.70;1.00;;;;;;5445963;26;20009;-78
2024/04/13 10:50:23;;;;;;;19.88;11.13;;;22.70;11.90;;;;;;5453329;26;20034;-78
2024/04/13 10:52:48;;;;;;;23.05;10.70;;;22.90;99.90;;;;;;5448894;26;20312;-78
2024/04/13 10:55:17;;;;;;;17.13;12.32;;;23.10;50.10;;;;;;5446001;26;20013;-77
2024/04/13 10:57:46;;;;;;;16.67;11.20;;;23.00;99.90;;;;;;5448307;26;19999;-78
2024/04/13 11:00:11;;;;;;;19.55;11.00;;;23.10;99.90;;;;;;5456457;26;20071;-78
2024/04/13 11:07:55;;;;;;;15.18;10.02;;;23.60;1.00;;;;;;4903476;20;20012;-78
2024/04/13 11:10:22;;;;;;;11.13;9.13;;;23.60;69.40;;;;;;5456331;26;19998;-78
2024/04/13 11:12:49;;;;;;;12.65;8.57;;;23.90;1.00;;;;;;5446219;26;20006;-78
2024/04/13 11:15:17;;;;;;;13.73;7.68;;;23.90;1.00;;;;;;5482962;26;20002;-78
2024/04/13 11:17:46;;;;;;;13.32;9.05;;;23.90;1.00;;;;;;5475335;26;20005;-78
2024/04/13 11:20:12;;;;;;;18.73;10.20;;;23.90;99.90;;;;;;5443570;26;19991;-77
2024/04/13 11:22:39;;;;;;;12.60;9.93;;;23.90;99.90;;;;;;5475072;26;20048;-78
2024/04/13 11:25:05;;;;;;;9.35;8.40;;;24.10;99.90;;;;;;5472049;26;20007;-78
2024/04/13 11:27:31;;;;;;;17.10;8.05;;;24.00;99.90;;;;;;5446839;26;19994;-78
2024/04/13 11:29:58;;;;;;;11.73;8.25;;;24.00;99.90;;;;;;5487007;26;20055;-78
2024/04/13 11:32:24;;;;;;;9.57;8.30;;;24.10;1.00;;;;;;5480879;26;19995;-78
2024/04/13 11:34:53;;;;;;;10.50;6.97;;;24.40;99.90;;;;;;5480064;26;20010;-78
2024/04/13 11:37:19;;;;;;;13.95;8.10;;;24.50;99.90;;;;;;5478564;26;19994;-78
2024/04/13 11:39:45;;;;;;;10.55;8.00;;;24.60;99.90;;;;;;5479150;26;20535;-78
2024/04/13 11:42:12;;;;;;;13.73;8.50;;;24.60;99.90;;;;;;5444308;26;19987;-78
2024/04/13 11:44:38;;;;;;;9.35;8.05;;;24.60;99.90;;;;;;5479758;26;20010;-78
2024/04/13 11:47:04;;;;;;;13.15;7.28;;;24.70;99.90;;;;;;5442822;26;20063;-78
2024/04/13 11:49:30;;;;;;;7.43;6.70;;;24.80;80.10;;;;;;5476219;26;20009;-78
2024/04/13 11:51:59;;;;;;;10.48;7.53;;;24.80;99.90;;;;;;5478702;26;20005;-78
2024/04/13 11:54:27;;;;;;;13.90;8.00;;;25.00;99.90;;;;;;5487094;26;19994;-78
2024/04/13 11:56:54;;;;;;;12.57;7.78;;;25.10;99.90;;;;;;5486686;26;20091;-78
2024/04/13 11:59:19;;;;;;;7.35;6.45;;;25.30;99.00;;;;;;5452083;26;20461;-78
2024/04/13 12:01:45;;;;;;;12.52;9.35;;;25.40;99.90;;;;;;5481745;26;19998;-78
2024/04/13 12:04:13;;;;;;;11.20;8.73;;;25.40;65.30;;;;;;5469632;26;20003;-78
2024/04/13 12:06:39;;;;;;;12.10;9.95;;;25.50;99.90;;;;;;5471966;26;20322;-78
2024/04/13 12:09:06;;;;;;;16.02;10.45;;;25.60;96.80;;;;;;5472779;26;19999;-78
2024/04/13 12:11:31;;;;;;;13.10;10.18;;;25.70;99.90;;;;;;5466888;26;19999;-78
2024/04/13 12:14:00;;;;;;;15.38;9.93;;;25.70;68.90;;;;;;5473179;26;20051;-78
2024/04/13 12:16:26;;;;;;;15.10;7.88;;;25.60;16.50;;;;;;5474541;26;20005;-78
2024/04/13 12:18:52;;;;;;;12.15;8.80;;;25.60;37.50;;;;;;5473430;26;20071;-78
2024/04/13 12:21:18;;;;;;;16.05;7.47;;;25.80;37.30;;;;;;5484537;26;19991;-78
2024/04/13 12:23:44;;;;;;;14.85;8.27;;;25.90;38.40;;;;;;5479751;26;20191;-78
2024/04/13 12:26:13;;;;;;;11.93;7.65;;;26.00;34.40;;;;;;5456784;26;19999;-78
2024/04/13 12:28:38;;;;;;;13.13;8.73;;;26.10;4.50;;;;;;5474485;26;20071;-78
2024/04/13 12:31:04;;;;;;;15.65;11.27;;;26.00;1.00;;;;;;5466927;26;20002;-78
2024/04/13 12:33:30;;;;;;;16.08;11.02;;;26.00;1.00;;;;;;5477496;26;20006;-78
2024/04/13 12:35:58;;;;;;;17.77;10.55;;;26.20;1.00;;;;;;5474458;26;19995;-78
2024/04/13 12:38:24;;;;;;;14.35;12.43;;;26.30;1.00;;;;;;5478983;26;19994;-78
2024/04/13 12:40:50;;;;;;;13.82;11.43;;;26.30;1.00;;;;;;5479592;26;20048;-78
2024/04/13 12:43:15;;;;;;;18.42;10.90;;;26.40;1.00;;;;;;5478656;26;20086;-78
2024/04/13 12:45:41;;;;;;;14.43;10.00;;;26.50;32.40;;;;;;5471700;26;19994;-78
2024/04/13 12:48:10;;;;;;;17.45;8.98;;;26.50;1.00;;;;;;5460455;26;20007;-78
2024/04/13 12:50:36;;;;;;;8.68;7.80;;;26.60;1.00;;;;;;5478748;26;20067;-78